SWA971 KBUR-KOAK
Flight info
| Callsign | SWA971 |
|---|---|
| Flight time | 0h 49m |
| Altitude | 36000 |
| Route | OROSZ2 COREZ RGOOD EMZOH4 |
| Aircraft | B738/M-SDE2E3GHIJ4J7P2RWZ/LB1D1 |
Departure
| Time | 2026-05-05 13:19 |
|---|---|
| Airport | Hollywood Burbank/Bob Hope Airport (KBUR) |
Arrival
| Time | 2026-05-05 14:09 |
|---|---|
| Airport | San Francisco Bay Oakland International Airport (KOAK) |
| Time | Latitude | Longitude | Altitude | Speed | Heading |
|---|---|---|---|---|---|
| 2026-05-05 13:08 | 34.19660 | -118.34935 | 784 ft | 0 kts | 181° |
| 2026-05-05 13:11 | 34.19670 | -118.34934 | 784 ft | 2 kts | 181° |
| 2026-05-05 13:11 | 34.19685 | -118.34934 | 784 ft | 2 kts | 181° |
| 2026-05-05 13:11 | 34.19700 | -118.34934 | 784 ft | 2 kts | 181° |
| 2026-05-05 13:12 | 34.19716 | -118.34933 | 784 ft | 2 kts | 181° |
| 2026-05-05 13:12 | 34.19729 | -118.34933 | 784 ft | 0 kts | 181° |
| 2026-05-05 13:12 | 34.19730 | -118.34933 | 784 ft | 0 kts | 181° |
| 2026-05-05 13:15 | 34.19729 | -118.34933 | 784 ft | 0 kts | 181° |
| 2026-05-05 13:15 | 34.19716 | -118.34951 | 784 ft | 6 kts | 259° |
| 2026-05-05 13:16 | 34.19714 | -118.35035 | 784 ft | 12 kts | 272° |
| 2026-05-05 13:16 | 34.19715 | -118.35068 | 784 ft | 5 kts | 272° |
| 2026-05-05 13:16 | 34.19717 | -118.35145 | 784 ft | 12 kts | 272° |
| 2026-05-05 13:16 | 34.19719 | -118.35278 | 784 ft | 19 kts | 271° |
| 2026-05-05 13:17 | 34.19721 | -118.35451 | 784 ft | 20 kts | 271° |
| 2026-05-05 13:17 | 34.19650 | -118.35546 | 784 ft | 18 kts | 175° |
| 2026-05-05 13:17 | 34.19539 | -118.35563 | 784 ft | 16 kts | 243° |
| 2026-05-05 13:17 | 34.19463 | -118.35654 | 784 ft | 16 kts | 168° |
| 2026-05-05 13:18 | 34.19446 | -118.35562 | 784 ft | 8 kts | 22° |
| 2026-05-05 13:18 | 34.19481 | -118.35565 | 784 ft | 4 kts | 347° |
| 2026-05-05 13:18 | 34.19551 | -118.35585 | 784 ft | 31 kts | 347° |
| 2026-05-05 13:18 | 34.20031 | -118.35716 | 784 ft | 104 kts | 347° |
| 2026-05-05 13:19 | 34.20948 | -118.35972 | 787 ft | 162 kts | 347° |
| 2026-05-05 13:19 | 34.22035 | -118.36315 | 1456 ft | 158 kts | 339° |
| 2026-05-05 13:19 | 34.22964 | -118.37116 | 1914 ft | 177 kts | 303° |
| 2026-05-05 13:19 | 34.23378 | -118.38528 | 2516 ft | 184 kts | 282° |
| 2026-05-05 13:20 | 34.23628 | -118.40083 | 2995 ft | 194 kts | 284° |
| 2026-05-05 13:20 | 34.24284 | -118.41530 | 3397 ft | 208 kts | 314° |
| 2026-05-05 13:20 | 34.25384 | -118.42783 | 3812 ft | 224 kts | 311° |
| 2026-05-05 13:20 | 34.26332 | -118.44372 | 4328 ft | 238 kts | 301° |
| 2026-05-05 13:21 | 34.27200 | -118.46127 | 4889 ft | 251 kts | 301° |
| 2026-05-05 13:21 | 34.28138 | -118.47937 | 5511 ft | 259 kts | 303° |
| 2026-05-05 13:21 | 34.29140 | -118.49770 | 6231 ft | 264 kts | 304° |
| 2026-05-05 13:21 | 34.30171 | -118.51617 | 6967 ft | 268 kts | 304° |
| 2026-05-05 13:22 | 34.31216 | -118.53476 | 7728 ft | 271 kts | 305° |
| 2026-05-05 13:22 | 34.32271 | -118.55354 | 8443 ft | 274 kts | 305° |
| 2026-05-05 13:22 | 34.33347 | -118.57274 | 9157 ft | 278 kts | 305° |
| 2026-05-05 13:22 | 34.34429 | -118.59207 | 9849 ft | 281 kts | 305° |
| 2026-05-05 13:23 | 34.35530 | -118.61182 | 10434 ft | 289 kts | 305° |
| 2026-05-05 13:23 | 34.36708 | -118.63242 | 10812 ft | 304 kts | 308° |
| 2026-05-05 13:23 | 34.38222 | -118.65107 | 11124 ft | 320 kts | 325° |
| 2026-05-05 13:23 | 34.40229 | -118.66434 | 11512 ft | 334 kts | 335° |
| 2026-05-05 13:24 | 34.42423 | -118.67539 | 11908 ft | 348 kts | 338° |
| 2026-05-05 13:24 | 34.44667 | -118.68713 | 12515 ft | 355 kts | 333° |
| 2026-05-05 13:24 | 34.46859 | -118.70130 | 13198 ft | 359 kts | 329° |
| 2026-05-05 13:24 | 34.49018 | -118.71676 | 13945 ft | 362 kts | 328° |
| 2026-05-05 13:25 | 34.51211 | -118.73294 | 14687 ft | 366 kts | 328° |
| 2026-05-05 13:25 | 34.53396 | -118.74902 | 15413 ft | 371 kts | 328° |
| 2026-05-05 13:25 | 34.55598 | -118.76501 | 16119 ft | 375 kts | 329° |
| 2026-05-05 13:25 | 34.57839 | -118.78109 | 16813 ft | 378 kts | 329° |
| 2026-05-05 13:26 | 34.60113 | -118.79729 | 17520 ft | 382 kts | 329° |
| 2026-05-05 13:26 | 34.62417 | -118.81362 | 18181 ft | 386 kts | 329° |
| 2026-05-05 13:26 | 34.64775 | -118.83032 | 18858 ft | 390 kts | 329° |
| 2026-05-05 13:26 | 34.67110 | -118.84687 | 19498 ft | 393 kts | 329° |
| 2026-05-05 13:27 | 34.69471 | -118.86360 | 20134 ft | 397 kts | 329° |
| 2026-05-05 13:27 | 34.71878 | -118.88068 | 20796 ft | 400 kts | 329° |
| 2026-05-05 13:27 | 34.74271 | -118.89768 | 21437 ft | 402 kts | 329° |
| 2026-05-05 13:27 | 34.76702 | -118.91496 | 22030 ft | 406 kts | 329° |
| 2026-05-05 13:28 | 34.79156 | -118.93243 | 22633 ft | 409 kts | 329° |
| 2026-05-05 13:28 | 34.81611 | -118.94992 | 23240 ft | 412 kts | 329° |
| 2026-05-05 13:28 | 34.84123 | -118.96783 | 23819 ft | 415 kts | 329° |
| 2026-05-05 13:28 | 34.86624 | -118.98568 | 24353 ft | 418 kts | 329° |
| 2026-05-05 13:29 | 34.89133 | -119.00360 | 24848 ft | 421 kts | 330° |
| 2026-05-05 13:29 | 34.91656 | -119.02164 | 25364 ft | 423 kts | 330° |
| 2026-05-05 13:29 | 34.94208 | -119.03989 | 25819 ft | 426 kts | 330° |
| 2026-05-05 13:29 | 34.96756 | -119.05811 | 26249 ft | 430 kts | 330° |
| 2026-05-05 13:30 | 34.99362 | -119.07678 | 26709 ft | 432 kts | 331° |
| 2026-05-05 13:30 | 35.01967 | -119.09545 | 27150 ft | 435 kts | 331° |
| 2026-05-05 13:30 | 35.04602 | -119.11433 | 27564 ft | 438 kts | 331° |
| 2026-05-05 13:30 | 35.07246 | -119.13332 | 28003 ft | 441 kts | 332° |
| 2026-05-05 13:31 | 35.09887 | -119.15229 | 28416 ft | 443 kts | 332° |
| 2026-05-05 13:31 | 35.12625 | -119.17198 | 28838 ft | 446 kts | 332° |
| 2026-05-05 13:31 | 35.15322 | -119.19138 | 29216 ft | 449 kts | 332° |
| 2026-05-05 13:31 | 35.18009 | -119.21072 | 29634 ft | 450 kts | 333° |
| 2026-05-05 13:32 | 35.20692 | -119.23008 | 30196 ft | 447 kts | 333° |
| 2026-05-05 13:32 | 35.23384 | -119.24952 | 30686 ft | 444 kts | 333° |
| 2026-05-05 13:32 | 35.26039 | -119.26869 | 31056 ft | 443 kts | 333° |
| 2026-05-05 13:32 | 35.28704 | -119.28793 | 31365 ft | 443 kts | 333° |
| 2026-05-05 13:33 | 35.31353 | -119.30707 | 31717 ft | 443 kts | 333° |
| 2026-05-05 13:33 | 35.34012 | -119.32629 | 32084 ft | 442 kts | 332° |
| 2026-05-05 13:33 | 35.36685 | -119.34563 | 32403 ft | 442 kts | 332° |
| 2026-05-05 13:33 | 35.39321 | -119.36473 | 32709 ft | 442 kts | 332° |
| 2026-05-05 13:34 | 35.41985 | -119.38404 | 33046 ft | 441 kts | 332° |
| 2026-05-05 13:34 | 35.44610 | -119.40308 | 33334 ft | 441 kts | 332° |
| 2026-05-05 13:34 | 35.47257 | -119.42230 | 33661 ft | 441 kts | 331° |
| 2026-05-05 13:34 | 35.49921 | -119.44166 | 33986 ft | 441 kts | 331° |
| 2026-05-05 13:35 | 35.52544 | -119.46075 | 34300 ft | 441 kts | 331° |
| 2026-05-05 13:35 | 35.55161 | -119.48074 | 34628 ft | 441 kts | 328° |
| 2026-05-05 13:35 | 35.57635 | -119.50251 | 34926 ft | 441 kts | 324° |
| 2026-05-05 13:35 | 35.60046 | -119.52586 | 35213 ft | 441 kts | 322° |
| 2026-05-05 13:36 | 35.62441 | -119.55018 | 35513 ft | 441 kts | 322° |
| 2026-05-05 13:36 | 35.64763 | -119.57425 | 35766 ft | 442 kts | 321° |
| 2026-05-05 13:36 | 35.67134 | -119.59895 | 35988 ft | 442 kts | 321° |
| 2026-05-05 13:36 | 35.69481 | -119.62340 | 36005 ft | 445 kts | 322° |
| 2026-05-05 13:37 | 35.74209 | -119.67241 | 36002 ft | 442 kts | 321° |
| 2026-05-05 13:37 | 35.78929 | -119.72109 | 36002 ft | 442 kts | 322° |
| 2026-05-05 13:38 | 35.83662 | -119.76981 | 36009 ft | 442 kts | 322° |
| 2026-05-05 13:38 | 35.88372 | -119.81829 | 36002 ft | 442 kts | 322° |
| 2026-05-05 13:39 | 35.93063 | -119.86760 | 36008 ft | 443 kts | 320° |
| 2026-05-05 13:39 | 35.97541 | -119.92007 | 36007 ft | 444 kts | 318° |
| 2026-05-05 13:40 | 36.01949 | -119.97355 | 36011 ft | 444 kts | 318° |
| 2026-05-05 13:40 | 36.06375 | -120.02702 | 36015 ft | 444 kts | 319° |
| 2026-05-05 13:41 | 36.10819 | -120.08031 | 36006 ft | 444 kts | 319° |
| 2026-05-05 13:41 | 36.15319 | -120.13410 | 36024 ft | 442 kts | 320° |
| 2026-05-05 13:42 | 36.19739 | -120.18692 | 36010 ft | 442 kts | 320° |
| 2026-05-05 13:42 | 36.24190 | -120.24012 | 36008 ft | 441 kts | 320° |
| 2026-05-05 13:43 | 36.28617 | -120.29314 | 36012 ft | 441 kts | 320° |
| 2026-05-05 13:43 | 36.33028 | -120.34603 | 36019 ft | 441 kts | 320° |
| 2026-05-05 13:44 | 36.37416 | -120.39877 | 35695 ft | 435 kts | 321° |
| 2026-05-05 13:44 | 36.39558 | -120.42458 | 35228 ft | 433 kts | 321° |
| 2026-05-05 13:44 | 36.41726 | -120.45069 | 34605 ft | 435 kts | 322° |
| 2026-05-05 13:45 | 36.43922 | -120.47714 | 33933 ft | 438 kts | 323° |
| 2026-05-05 13:45 | 36.46087 | -120.50321 | 33230 ft | 443 kts | 323° |
| 2026-05-05 13:45 | 36.48329 | -120.53017 | 32426 ft | 448 kts | 323° |
| 2026-05-05 13:45 | 36.50566 | -120.55711 | 31599 ft | 453 kts | 324° |
| 2026-05-05 13:46 | 36.52845 | -120.58459 | 30920 ft | 453 kts | 324° |
| 2026-05-05 13:46 | 36.55085 | -120.61140 | 30513 ft | 444 kts | 325° |
| 2026-05-05 13:46 | 36.57356 | -120.63742 | 29905 ft | 440 kts | 326° |
| 2026-05-05 13:46 | 36.59629 | -120.66264 | 29351 ft | 434 kts | 326° |
| 2026-05-05 13:47 | 36.61889 | -120.68740 | 28825 ft | 428 kts | 326° |
| 2026-05-05 13:47 | 36.64103 | -120.71158 | 28294 ft | 423 kts | 327° |
| 2026-05-05 13:47 | 36.66312 | -120.73576 | 27775 ft | 418 kts | 326° |
| 2026-05-05 13:47 | 36.68463 | -120.75938 | 27270 ft | 412 kts | 326° |
| 2026-05-05 13:48 | 36.70606 | -120.78299 | 26758 ft | 408 kts | 326° |
| 2026-05-05 13:48 | 36.72724 | -120.80640 | 26245 ft | 403 kts | 326° |
| 2026-05-05 13:48 | 36.74796 | -120.82936 | 25750 ft | 398 kts | 326° |
| 2026-05-05 13:48 | 36.76846 | -120.85212 | 25241 ft | 394 kts | 326° |
| 2026-05-05 13:49 | 36.78878 | -120.87469 | 24748 ft | 389 kts | 326° |
| 2026-05-05 13:49 | 36.80885 | -120.89692 | 24250 ft | 385 kts | 326° |
| 2026-05-05 13:49 | 36.82893 | -120.91914 | 23761 ft | 381 kts | 326° |
| 2026-05-05 13:49 | 36.84858 | -120.94087 | 23261 ft | 378 kts | 325° |
| 2026-05-05 13:50 | 36.86803 | -120.96240 | 22783 ft | 374 kts | 325° |
| 2026-05-05 13:50 | 36.88758 | -120.98405 | 22283 ft | 371 kts | 325° |
| 2026-05-05 13:50 | 36.90653 | -121.00507 | 21807 ft | 367 kts | 325° |
| 2026-05-05 13:50 | 36.92562 | -121.02628 | 21321 ft | 364 kts | 325° |
| 2026-05-05 13:51 | 36.94438 | -121.04714 | 20843 ft | 362 kts | 325° |
| 2026-05-05 13:51 | 36.96350 | -121.06837 | 20355 ft | 365 kts | 324° |
| 2026-05-05 13:51 | 36.98250 | -121.08948 | 19856 ft | 366 kts | 324° |
| 2026-05-05 13:51 | 37.00143 | -121.11059 | 19351 ft | 362 kts | 324° |
| 2026-05-05 13:52 | 37.02011 | -121.13147 | 18861 ft | 359 kts | 324° |
| 2026-05-05 13:52 | 37.03844 | -121.15199 | 18364 ft | 356 kts | 324° |
| 2026-05-05 13:52 | 37.05700 | -121.17275 | 17865 ft | 353 kts | 323° |
| 2026-05-05 13:52 | 37.07512 | -121.19300 | 17377 ft | 350 kts | 324° |
| 2026-05-05 13:53 | 37.09322 | -121.21323 | 16881 ft | 347 kts | 323° |
| 2026-05-05 13:53 | 37.11122 | -121.23334 | 16391 ft | 345 kts | 323° |
| 2026-05-05 13:53 | 37.12936 | -121.25364 | 15851 ft | 344 kts | 323° |
| 2026-05-05 13:53 | 37.14698 | -121.27358 | 15349 ft | 342 kts | 322° |
| 2026-05-05 13:54 | 37.16431 | -121.29362 | 14870 ft | 340 kts | 322° |
| 2026-05-05 13:54 | 37.18169 | -121.31387 | 14385 ft | 337 kts | 321° |
| 2026-05-05 13:54 | 37.19873 | -121.33379 | 13904 ft | 335 kts | 321° |
| 2026-05-05 13:54 | 37.21570 | -121.35360 | 13421 ft | 332 kts | 321° |
| 2026-05-05 13:55 | 37.23260 | -121.37330 | 12947 ft | 330 kts | 321° |
| 2026-05-05 13:55 | 37.24936 | -121.39281 | 12468 ft | 328 kts | 321° |
| 2026-05-05 13:55 | 37.26582 | -121.41196 | 12002 ft | 325 kts | 321° |
| 2026-05-05 13:55 | 37.28247 | -121.43135 | 11535 ft | 323 kts | 321° |
| 2026-05-05 13:56 | 37.29887 | -121.45046 | 11063 ft | 320 kts | 321° |
| 2026-05-05 13:56 | 37.31504 | -121.46935 | 10602 ft | 318 kts | 320° |
| 2026-05-05 13:56 | 37.33105 | -121.48817 | 10336 ft | 309 kts | 320° |
| 2026-05-05 13:56 | 37.34655 | -121.50639 | 10212 ft | 296 kts | 320° |
| 2026-05-05 13:57 | 37.36136 | -121.52381 | 10072 ft | 285 kts | 320° |
| 2026-05-05 13:57 | 37.37559 | -121.54054 | 9900 ft | 276 kts | 321° |
| 2026-05-05 13:57 | 37.38959 | -121.55673 | 9602 ft | 272 kts | 321° |
| 2026-05-05 13:57 | 37.40341 | -121.57246 | 9306 ft | 268 kts | 321° |
| 2026-05-05 13:58 | 37.41717 | -121.58806 | 9007 ft | 265 kts | 321° |
| 2026-05-05 13:58 | 37.43089 | -121.60365 | 8703 ft | 262 kts | 321° |
| 2026-05-05 13:58 | 37.44356 | -121.61961 | 8406 ft | 260 kts | 313° |
| 2026-05-05 13:58 | 37.45464 | -121.63763 | 8104 ft | 258 kts | 309° |
| 2026-05-05 13:59 | 37.47504 | -121.67460 | 7496 ft | 253 kts | 307° |
| 2026-05-05 13:59 | 37.48513 | -121.69253 | 7197 ft | 251 kts | 307° |
| 2026-05-05 14:00 | 37.50532 | -121.72805 | 6591 ft | 247 kts | 307° |
| 2026-05-05 14:00 | 37.51196 | -121.73967 | 6387 ft | 246 kts | 307° |
| 2026-05-05 14:00 | 37.52525 | -121.76290 | 5978 ft | 244 kts | 307° |
| 2026-05-05 14:00 | 37.53406 | -121.78121 | 5672 ft | 243 kts | 296° |
| 2026-05-05 14:01 | 37.53986 | -121.80094 | 5375 ft | 242 kts | 289° |
| 2026-05-05 14:01 | 37.54479 | -121.82147 | 5071 ft | 241 kts | 288° |
| 2026-05-05 14:01 | 37.54942 | -121.84154 | 4772 ft | 240 kts | 287° |
| 2026-05-05 14:01 | 37.55408 | -121.86177 | 4469 ft | 239 kts | 288° |
| 2026-05-05 14:02 | 37.55868 | -121.88166 | 4171 ft | 238 kts | 287° |
| 2026-05-05 14:02 | 37.56333 | -121.90166 | 3960 ft | 233 kts | 287° |
| 2026-05-05 14:02 | 37.56785 | -121.92112 | 3754 ft | 228 kts | 288° |
| 2026-05-05 14:02 | 37.57226 | -121.94013 | 3550 ft | 223 kts | 288° |
| 2026-05-05 14:03 | 37.57650 | -121.95854 | 3349 ft | 219 kts | 288° |
| 2026-05-05 14:03 | 37.58075 | -121.97693 | 3144 ft | 216 kts | 288° |
| 2026-05-05 14:03 | 37.58496 | -121.99502 | 2976 ft | 210 kts | 287° |
| 2026-05-05 14:03 | 37.58901 | -122.01224 | 2975 ft | 198 kts | 288° |
| 2026-05-05 14:04 | 37.59272 | -122.02808 | 2967 ft | 184 kts | 288° |
| 2026-05-05 14:04 | 37.59617 | -122.04335 | 2978 ft | 176 kts | 285° |
| 2026-05-05 14:04 | 37.59940 | -122.05778 | 2963 ft | 163 kts | 295° |
| 2026-05-05 14:04 | 37.60517 | -122.06995 | 2979 ft | 162 kts | 307° |
| 2026-05-05 14:05 | 37.61208 | -122.08107 | 2791 ft | 160 kts | 309° |
| 2026-05-05 14:05 | 37.61919 | -122.09187 | 2562 ft | 156 kts | 310° |
| 2026-05-05 14:05 | 37.62602 | -122.10207 | 2354 ft | 147 kts | 310° |
| 2026-05-05 14:05 | 37.63256 | -122.11181 | 2176 ft | 148 kts | 310° |
| 2026-05-05 14:06 | 37.63914 | -122.12159 | 1938 ft | 146 kts | 309° |
| 2026-05-05 14:06 | 37.64574 | -122.13141 | 1744 ft | 147 kts | 309° |
| 2026-05-05 14:06 | 37.65232 | -122.14119 | 1543 ft | 147 kts | 309° |
| 2026-05-05 14:06 | 37.65897 | -122.15108 | 1339 ft | 147 kts | 309° |
| 2026-05-05 14:07 | 37.66559 | -122.16094 | 1139 ft | 148 kts | 309° |
| 2026-05-05 14:07 | 37.67223 | -122.17082 | 941 ft | 146 kts | 309° |
| 2026-05-05 14:07 | 37.67879 | -122.18059 | 742 ft | 147 kts | 309° |
| 2026-05-05 14:07 | 37.68548 | -122.19057 | 543 ft | 148 kts | 309° |
| 2026-05-05 14:08 | 37.69210 | -122.20043 | 341 ft | 148 kts | 309° |
| 2026-05-05 14:08 | 37.69871 | -122.21029 | 146 ft | 148 kts | 309° |
| 2026-05-05 14:08 | 37.70538 | -122.22024 | 13 ft | 138 kts | 310° |
| 2026-05-05 14:08 | 37.70986 | -122.22692 | 13 ft | 61 kts | 311° |
| 2026-05-05 14:09 | 37.71209 | -122.23003 | 13 ft | 40 kts | 321° |
| 2026-05-05 14:09 | 37.71409 | -122.23132 | 13 ft | 23 kts | 347° |
| 2026-05-05 14:09 | 37.71473 | -122.23032 | 12 ft | 20 kts | 125° |
| 2026-05-05 14:09 | 37.71371 | -122.22879 | 12 ft | 24 kts | 130° |
| 2026-05-05 14:10 | 37.71257 | -122.22711 | 13 ft | 25 kts | 130° |
| 2026-05-05 14:10 | 37.71138 | -122.22533 | 13 ft | 26 kts | 129° |
| 2026-05-05 14:10 | 37.71019 | -122.22356 | 13 ft | 27 kts | 130° |
| 2026-05-05 14:10 | 37.70895 | -122.22168 | 13 ft | 27 kts | 130° |
| 2026-05-05 14:11 | 37.70771 | -122.21981 | 13 ft | 27 kts | 130° |
| 2026-05-05 14:11 | 37.70694 | -122.21811 | 13 ft | 20 kts | 76° |
| 2026-05-05 14:11 | 37.70805 | -122.21671 | 13 ft | 24 kts | 40° |
| 2026-05-05 14:11 | 37.70901 | -122.21498 | 13 ft | 23 kts | 60° |
| 2026-05-05 14:12 | 37.70990 | -122.21397 | 13 ft | 10 kts | 38° |
| 2026-05-05 14:12 | 37.71034 | -122.21348 | 13 ft | 6 kts | 71° |
| 2026-05-05 14:12 | 37.71024 | -122.21330 | 13 ft | 2 kts | 148° |
| 2026-05-05 14:12 | 37.71001 | -122.21311 | 13 ft | 4 kts | 150° |
| 2026-05-05 14:13 | 37.70994 | -122.21307 | 13 ft | 0 kts | 150° |